sensor_id;sensor_type;location;lat;lon;timestamp;P1;durP1;ratioP1;P2;durP2;ratioP2
26906;SDS011;14472;56.880;16.658;2023-05-18T00:00:20;4.10;;;0.80;;
26906;SDS011;14472;56.880;16.658;2023-05-18T00:02:45;1.37;;;0.60;;
26906;SDS011;14472;56.880;16.658;2023-05-18T00:05:14;0.80;;;0.53;;
26906;SDS011;14472;56.880;16.658;2023-05-18T00:07:42;0.77;;;0.77;;
26906;SDS011;14472;56.880;16.658;2023-05-18T00:10:09;1.33;;;0.67;;
26906;SDS011;14472;56.880;16.658;2023-05-18T00:12:35;1.60;;;0.67;;
26906;SDS011;14472;56.880;16.658;2023-05-18T00:15:02;0.87;;;0.60;;
26906;SDS011;14472;56.880;16.658;2023-05-18T00:17:28;1.83;;;0.80;;
26906;SDS011;14472;56.880;16.658;2023-05-18T00:19:53;1.13;;;0.70;;
26906;SDS011;14472;56.880;16.658;2023-05-18T00:22:22;2.00;;;0.77;;
26906;SDS011;14472;56.880;16.658;2023-05-18T00:24:50;1.40;;;0.70;;
26906;SDS011;14472;56.880;16.658;2023-05-18T00:27:16;1.83;;;0.70;;
26906;SDS011;14472;56.880;16.658;2023-05-18T00:29:42;2.10;;;0.60;;
26906;SDS011;14472;56.880;16.658;2023-05-18T00:32:08;1.30;;;0.60;;
26906;SDS011;14472;56.880;16.658;2023-05-18T00:34:33;2.20;;;0.80;;
26906;SDS011;14472;56.880;16.658;2023-05-18T00:37:00;1.67;;;0.70;;
26906;SDS011;14472;56.880;16.658;2023-05-18T00:39:26;1.10;;;0.70;;
26906;SDS011;14472;56.880;16.658;2023-05-18T00:41:51;0.70;;;0.70;;
26906;SDS011;14472;56.880;16.658;2023-05-18T00:44:17;1.83;;;0.73;;
26906;SDS011;14472;56.880;16.658;2023-05-18T00:46:43;1.73;;;0.70;;
26906;SDS011;14472;56.880;16.658;2023-05-18T00:49:09;2.70;;;1.10;;
26906;SDS011;14472;56.880;16.658;2023-05-18T00:51:36;0.60;;;0.60;;
26906;SDS011;14472;56.880;16.658;2023-05-18T00:54:02;0.93;;;0.70;;
26906;SDS011;14472;56.880;16.658;2023-05-18T00:56:30;1.13;;;0.73;;
26906;SDS011;14472;56.880;16.658;2023-05-18T00:59:00;2.10;;;0.77;;
26906;SDS011;14472;56.880;16.658;2023-05-18T01:01:28;0.83;;;0.60;;
26906;SDS011;14472;56.880;16.658;2023-05-18T01:03:58;2.20;;;0.80;;
26906;SDS011;14472;56.880;16.658;2023-05-18T01:06:26;1.13;;;0.60;;
26906;SDS011;14472;56.880;16.658;2023-05-18T01:08:53;1.40;;;0.70;;
26906;SDS011;14472;56.880;16.658;2023-05-18T01:13:56;0.90;;;0.70;;
26906;SDS011;14472;56.880;16.658;2023-05-18T01:16:42;3.00;;;0.83;;
26906;SDS011;14472;56.880;16.658;2023-05-18T01:19:22;1.30;;;0.60;;
26906;SDS011;14472;56.880;16.658;2023-05-18T01:22:12;3.37;;;0.80;;
26906;SDS011;14472;56.880;16.658;2023-05-18T01:25:17;0.60;;;0.60;;
26906;SDS011;14472;56.880;16.658;2023-05-18T01:27:56;5.50;;;0.97;;
26906;SDS011;14472;56.880;16.658;2023-05-18T01:30:30;3.40;;;0.80;;
26906;SDS011;14472;56.880;16.658;2023-05-18T01:32:58;1.10;;;0.70;;
26906;SDS011;14472;56.880;16.658;2023-05-18T01:35:24;3.83;;;1.20;;
26906;SDS011;14472;56.880;16.658;2023-05-18T01:37:50;1.23;;;0.70;;
26906;SDS011;14472;56.880;16.658;2023-05-18T01:40:15;0.80;;;0.80;;
26906;SDS011;14472;56.880;16.658;2023-05-18T01:42:45;2.90;;;0.90;;
26906;SDS011;14472;56.880;16.658;2023-05-18T01:45:20;1.87;;;0.70;;
26906;SDS011;14472;56.880;16.658;2023-05-18T01:47:50;2.30;;;0.80;;
26906;SDS011;14472;56.880;16.658;2023-05-18T01:50:30;0.70;;;0.70;;
26906;SDS011;14472;56.880;16.658;2023-05-18T01:53:11;1.20;;;0.80;;
26906;SDS011;14472;56.880;16.658;2023-05-18T01:55:44;1.17;;;0.60;;
26906;SDS011;14472;56.880;16.658;2023-05-18T01:58:12;1.23;;;0.80;;
26906;SDS011;14472;56.880;16.658;2023-05-18T02:00:39;1.60;;;0.90;;
26906;SDS011;14472;56.880;16.658;2023-05-18T02:03:05;1.50;;;0.70;;
26906;SDS011;14472;56.880;16.658;2023-05-18T02:05:31;1.30;;;0.70;;
26906;SDS011;14472;56.880;16.658;2023-05-18T02:07:57;3.03;;;0.90;;
26906;SDS011;14472;56.880;16.658;2023-05-18T02:10:22;1.33;;;0.90;;
26906;SDS011;14472;56.880;16.658;2023-05-18T02:12:48;1.47;;;0.80;;
26906;SDS011;14472;56.880;16.658;2023-05-18T02:15:16;2.43;;;0.90;;
26906;SDS011;14472;56.880;16.658;2023-05-18T02:17:42;1.80;;;0.70;;
26906;SDS011;14472;56.880;16.658;2023-05-18T02:20:08;1.57;;;1.00;;
26906;SDS011;14472;56.880;16.658;2023-05-18T02:22:35;2.30;;;1.00;;
26906;SDS011;14472;56.880;16.658;2023-05-18T02:25:01;0.83;;;0.60;;
26906;SDS011;14472;56.880;16.658;2023-05-18T02:27:29;1.00;;;0.80;;
26906;SDS011;14472;56.880;16.658;2023-05-18T02:29:55;4.10;;;1.03;;
26906;SDS011;14472;56.880;16.658;2023-05-18T02:32:22;2.33;;;1.00;;
26906;SDS011;14472;56.880;16.658;2023-05-18T02:34:50;3.80;;;1.10;;
26906;SDS011;14472;56.880;16.658;2023-05-18T02:37:18;2.17;;;0.90;;
26906;SDS011;14472;56.880;16.658;2023-05-18T02:39:46;2.90;;;1.10;;
26906;SDS011;14472;56.880;16.658;2023-05-18T02:42:12;2.73;;;1.10;;
26906;SDS011;14472;56.880;16.658;2023-05-18T02:44:38;2.50;;;0.93;;
26906;SDS011;14472;56.880;16.658;2023-05-18T02:47:04;2.73;;;1.00;;
26906;SDS011;14472;56.880;16.658;2023-05-18T02:49:30;2.60;;;0.93;;
26906;SDS011;14472;56.880;16.658;2023-05-18T02:51:57;2.83;;;0.90;;
26906;SDS011;14472;56.880;16.658;2023-05-18T02:54:23;5.17;;;1.20;;
26906;SDS011;14472;56.880;16.658;2023-05-18T02:56:48;4.27;;;1.03;;
26906;SDS011;14472;56.880;16.658;2023-05-18T02:59:14;3.37;;;0.97;;
26906;SDS011;14472;56.880;16.658;2023-05-18T03:01:40;4.43;;;1.10;;
26906;SDS011;14472;56.880;16.658;2023-05-18T03:04:05;4.67;;;1.00;;
26906;SDS011;14472;56.880;16.658;2023-05-18T03:06:31;3.13;;;1.00;;
26906;SDS011;14472;56.880;16.658;2023-05-18T03:08:57;5.57;;;1.03;;
26906;SDS011;14472;56.880;16.658;2023-05-18T03:11:23;2.50;;;1.20;;
26906;SDS011;14472;56.880;16.658;2023-05-18T03:13:50;5.23;;;1.03;;
26906;SDS011;14472;56.880;16.658;2023-05-18T03:16:16;3.70;;;1.23;;
26906;SDS011;14472;56.880;16.658;2023-05-18T03:18:42;4.50;;;1.07;;
26906;SDS011;14472;56.880;16.658;2023-05-18T03:21:08;5.23;;;1.10;;
26906;SDS011;14472;56.880;16.658;2023-05-18T03:23:37;2.33;;;1.10;;
26906;SDS011;14472;56.880;16.658;2023-05-18T03:26:03;2.17;;;1.20;;
26906;SDS011;14472;56.880;16.658;2023-05-18T03:28:36;1.10;;;0.80;;
26906;SDS011;14472;56.880;16.658;2023-05-18T03:31:02;3.07;;;1.00;;
26906;SDS011;14472;56.880;16.658;2023-05-18T03:33:28;5.07;;;1.20;;
26906;SDS011;14472;56.880;16.658;2023-05-18T03:35:54;3.03;;;0.90;;
26906;SDS011;14472;56.880;16.658;2023-05-18T03:38:20;2.87;;;1.00;;
26906;SDS011;14472;56.880;16.658;2023-05-18T03:40:46;3.77;;;0.90;;
26906;SDS011;14472;56.880;16.658;2023-05-18T03:43:11;2.67;;;1.00;;
26906;SDS011;14472;56.880;16.658;2023-05-18T03:45:37;4.13;;;1.17;;
26906;SDS011;14472;56.880;16.658;2023-05-18T03:48:03;2.87;;;0.90;;
26906;SDS011;14472;56.880;16.658;2023-05-18T03:50:29;4.23;;;1.10;;
26906;SDS011;14472;56.880;16.658;2023-05-18T03:52:55;3.43;;;1.10;;
26906;SDS011;14472;56.880;16.658;2023-05-18T03:55:20;3.87;;;1.17;;
26906;SDS011;14472;56.880;16.658;2023-05-18T03:57:46;3.60;;;1.10;;
26906;SDS011;14472;56.880;16.658;2023-05-18T04:00:13;4.33;;;1.17;;
26906;SDS011;14472;56.880;16.658;2023-05-18T04:02:39;5.20;;;1.27;;
26906;SDS011;14472;56.880;16.658;2023-05-18T04:05:06;4.73;;;1.20;;
26906;SDS011;14472;56.880;16.658;2023-05-18T04:07:32;4.13;;;1.13;;
26906;SDS011;14472;56.880;16.658;2023-05-18T04:09:58;3.53;;;1.57;;
26906;SDS011;14472;56.880;16.658;2023-05-18T04:12:23;2.33;;;1.20;;
26906;SDS011;14472;56.880;16.658;2023-05-18T04:14:49;6.00;;;1.20;;
26906;SDS011;14472;56.880;16.658;2023-05-18T04:17:18;5.63;;;1.40;;
26906;SDS011;14472;56.880;16.658;2023-05-18T04:19:47;5.50;;;1.30;;
26906;SDS011;14472;56.880;16.658;2023-05-18T04:22:14;6.40;;;1.30;;
26906;SDS011;14472;56.880;16.658;2023-05-18T04:24:40;7.83;;;1.63;;
26906;SDS011;14472;56.880;16.658;2023-05-18T04:27:07;3.03;;;1.10;;
26906;SDS011;14472;56.880;16.658;2023-05-18T04:29:33;8.13;;;1.33;;
26906;SDS011;14472;56.880;16.658;2023-05-18T04:32:06;4.43;;;1.30;;
26906;SDS011;14472;56.880;16.658;2023-05-18T04:34:34;3.93;;;1.30;;
26906;SDS011;14472;56.880;16.658;2023-05-18T04:37:04;3.87;;;1.20;;
26906;SDS011;14472;56.880;16.658;2023-05-18T04:39:33;3.30;;;1.10;;
26906;SDS011;14472;56.880;16.658;2023-05-18T04:41:59;3.60;;;1.03;;
26906;SDS011;14472;56.880;16.658;2023-05-18T04:46:51;5.40;;;1.30;;
26906;SDS011;14472;56.880;16.658;2023-05-18T04:49:18;4.93;;;1.23;;
26906;SDS011;14472;56.880;16.658;2023-05-18T04:51:51;4.83;;;1.30;;
26906;SDS011;14472;56.880;16.658;2023-05-18T04:54:26;5.20;;;1.40;;
26906;SDS011;14472;56.880;16.658;2023-05-18T04:56:55;5.37;;;1.10;;
26906;SDS011;14472;56.880;16.658;2023-05-18T04:59:21;7.93;;;1.30;;
26906;SDS011;14472;56.880;16.658;2023-05-18T05:01:53;3.70;;;1.17;;
26906;SDS011;14472;56.880;16.658;2023-05-18T05:04:20;5.27;;;1.30;;
26906;SDS011;14472;56.880;16.658;2023-05-18T05:06:46;8.70;;;1.33;;
26906;SDS011;14472;56.880;16.658;2023-05-18T05:09:12;6.60;;;1.50;;
26906;SDS011;14472;56.880;16.658;2023-05-18T05:11:39;4.37;;;1.10;;
26906;SDS011;14472;56.880;16.658;2023-05-18T05:14:05;5.23;;;1.30;;
26906;SDS011;14472;56.880;16.658;2023-05-18T05:16:31;5.73;;;1.37;;
26906;SDS011;14472;56.880;16.658;2023-05-18T05:18:58;3.90;;;1.30;;
26906;SDS011;14472;56.880;16.658;2023-05-18T05:21:24;3.03;;;1.10;;
26906;SDS011;14472;56.880;16.658;2023-05-18T05:23:50;5.03;;;1.20;;
26906;SDS011;14472;56.880;16.658;2023-05-18T05:26:16;4.10;;;1.33;;
26906;SDS011;14472;56.880;16.658;2023-05-18T05:28:43;2.33;;;1.10;;
26906;SDS011;14472;56.880;16.658;2023-05-18T05:31:08;6.00;;;1.20;;
26906;SDS011;14472;56.880;16.658;2023-05-18T05:33:34;2.33;;;1.10;;
26906;SDS011;14472;56.880;16.658;2023-05-18T05:36:00;5.00;;;1.27;;
26906;SDS011;14472;56.880;16.658;2023-05-18T05:38:26;5.73;;;1.37;;
26906;SDS011;14472;56.880;16.658;2023-05-18T05:40:52;5.67;;;1.30;;
26906;SDS011;14472;56.880;16.658;2023-05-18T05:43:18;5.07;;;1.50;;
26906;SDS011;14472;56.880;16.658;2023-05-18T05:45:43;6.67;;;1.30;;
26906;SDS011;14472;56.880;16.658;2023-05-18T05:48:09;4.80;;;1.53;;
26906;SDS011;14472;56.880;16.658;2023-05-18T05:50:35;5.03;;;1.20;;
26906;SDS011;14472;56.880;16.658;2023-05-18T05:53:01;4.03;;;1.30;;
26906;SDS011;14472;56.880;16.658;2023-05-18T05:55:26;3.53;;;1.30;;
26906;SDS011;14472;56.880;16.658;2023-05-18T05:57:52;4.90;;;1.43;;
26906;SDS011;14472;56.880;16.658;2023-05-18T06:00:18;5.10;;;1.20;;
26906;SDS011;14472;56.880;16.658;2023-05-18T06:02:44;6.13;;;1.33;;
26906;SDS011;14472;56.880;16.658;2023-05-18T06:05:10;6.87;;;1.50;;
26906;SDS011;14472;56.880;16.658;2023-05-18T06:07:36;4.70;;;1.20;;
26906;SDS011;14472;56.880;16.658;2023-05-18T06:10:02;5.83;;;1.30;;
26906;SDS011;14472;56.880;16.658;2023-05-18T06:12:28;4.27;;;1.30;;
26906;SDS011;14472;56.880;16.658;2023-05-18T06:14:54;4.57;;;1.30;;
26906;SDS011;14472;56.880;16.658;2023-05-18T06:17:24;4.60;;;1.20;;
26906;SDS011;14472;56.880;16.658;2023-05-18T06:19:50;5.77;;;1.40;;
26906;SDS011;14472;56.880;16.658;2023-05-18T06:22:16;6.27;;;1.60;;
26906;SDS011;14472;56.880;16.658;2023-05-18T06:24:43;4.83;;;1.50;;
26906;SDS011;14472;56.880;16.658;2023-05-18T06:27:09;4.20;;;1.40;;
26906;SDS011;14472;56.880;16.658;2023-05-18T06:29:35;6.27;;;1.50;;
26906;SDS011;14472;56.880;16.658;2023-05-18T06:32:01;2.23;;;1.20;;
26906;SDS011;14472;56.880;16.658;2023-05-18T06:34:27;5.17;;;1.47;;
26906;SDS011;14472;56.880;16.658;2023-05-18T06:36:53;6.30;;;1.20;;
26906;SDS011;14472;56.880;16.658;2023-05-18T06:39:18;4.47;;;1.40;;
26906;SDS011;14472;56.880;16.658;2023-05-18T06:41:44;7.37;;;2.47;;
26906;SDS011;14472;56.880;16.658;2023-05-18T06:44:10;6.60;;;2.70;;
26906;SDS011;14472;56.880;16.658;2023-05-18T06:46:36;4.37;;;1.40;;
26906;SDS011;14472;56.880;16.658;2023-05-18T06:49:03;4.30;;;1.50;;
26906;SDS011;14472;56.880;16.658;2023-05-18T06:51:28;3.80;;;1.40;;
26906;SDS011;14472;56.880;16.658;2023-05-18T06:53:55;7.43;;;1.63;;
26906;SDS011;14472;56.880;16.658;2023-05-18T06:56:21;2.90;;;1.50;;
26906;SDS011;14472;56.880;16.658;2023-05-18T06:58:47;4.37;;;1.33;;
26906;SDS011;14472;56.880;16.658;2023-05-18T07:01:13;5.33;;;1.63;;
26906;SDS011;14472;56.880;16.658;2023-05-18T07:03:39;5.90;;;1.57;;
26906;SDS011;14472;56.880;16.658;2023-05-18T07:06:05;3.53;;;1.30;;
26906;SDS011;14472;56.880;16.658;2023-05-18T07:08:31;6.20;;;1.43;;
26906;SDS011;14472;56.880;16.658;2023-05-18T07:10:57;5.63;;;1.50;;
26906;SDS011;14472;56.880;16.658;2023-05-18T07:13:23;5.33;;;1.30;;
26906;SDS011;14472;56.880;16.658;2023-05-18T07:15:49;4.63;;;1.33;;
26906;SDS011;14472;56.880;16.658;2023-05-18T07:18:15;3.37;;;1.43;;
26906;SDS011;14472;56.880;16.658;2023-05-18T07:20:41;5.43;;;1.70;;
26906;SDS011;14472;56.880;16.658;2023-05-18T07:23:07;2.70;;;1.20;;
26906;SDS011;14472;56.880;16.658;2023-05-18T07:25:33;4.27;;;1.30;;
26906;SDS011;14472;56.880;16.658;2023-05-18T07:27:59;5.00;;;1.23;;
26906;SDS011;14472;56.880;16.658;2023-05-18T07:30:25;5.27;;;1.17;;
26906;SDS011;14472;56.880;16.658;2023-05-18T07:32:51;5.70;;;1.20;;
26906;SDS011;14472;56.880;16.658;2023-05-18T07:35:17;4.70;;;1.43;;
26906;SDS011;14472;56.880;16.658;2023-05-18T07:37:44;4.33;;;1.43;;
26906;SDS011;14472;56.880;16.658;2023-05-18T07:40:10;5.57;;;1.60;;
26906;SDS011;14472;56.880;16.658;2023-05-18T07:42:37;5.00;;;1.23;;
26906;SDS011;14472;56.880;16.658;2023-05-18T07:45:04;4.43;;;1.27;;
26906;SDS011;14472;56.880;16.658;2023-05-18T07:47:31;5.33;;;1.30;;
26906;SDS011;14472;56.880;16.658;2023-05-18T07:49:59;5.13;;;1.60;;
26906;SDS011;14472;56.880;16.658;2023-05-18T07:52:25;4.33;;;1.30;;
26906;SDS011;14472;56.880;16.658;2023-05-18T07:54:57;4.00;;;1.30;;
26906;SDS011;14472;56.880;16.658;2023-05-18T07:57:25;5.33;;;2.00;;
26906;SDS011;14472;56.880;16.658;2023-05-18T07:59:51;6.30;;;1.63;;
26906;SDS011;14472;56.880;16.658;2023-05-18T08:02:16;4.97;;;1.50;;
26906;SDS011;14472;56.880;16.658;2023-05-18T08:04:44;5.10;;;1.53;;
26906;SDS011;14472;56.880;16.658;2023-05-18T08:07:10;6.13;;;1.50;;
26906;SDS011;14472;56.880;16.658;2023-05-18T08:09:36;4.67;;;1.30;;
26906;SDS011;14472;56.880;16.658;2023-05-18T08:12:03;3.77;;;1.40;;
26906;SDS011;14472;56.880;16.658;2023-05-18T08:14:29;3.83;;;1.37;;
26906;SDS011;14472;56.880;16.658;2023-05-18T08:16:55;4.07;;;1.40;;
26906;SDS011;14472;56.880;16.658;2023-05-18T08:19:21;4.20;;;1.20;;
26906;SDS011;14472;56.880;16.658;2023-05-18T08:21:46;3.90;;;1.57;;
26906;SDS011;14472;56.880;16.658;2023-05-18T08:24:12;3.93;;;1.40;;
26906;SDS011;14472;56.880;16.658;2023-05-18T08:26:38;6.20;;;1.50;;
26906;SDS011;14472;56.880;16.658;2023-05-18T08:29:04;7.10;;;1.70;;
26906;SDS011;14472;56.880;16.658;2023-05-18T08:31:37;5.10;;;1.43;;
26906;SDS011;14472;56.880;16.658;2023-05-18T08:34:04;4.87;;;1.23;;
26906;SDS011;14472;56.880;16.658;2023-05-18T08:36:32;5.90;;;1.30;;
26906;SDS011;14472;56.880;16.658;2023-05-18T08:38:58;5.17;;;1.27;;
26906;SDS011;14472;56.880;16.658;2023-05-18T08:41:47;4.40;;;1.70;;
26906;SDS011;14472;56.880;16.658;2023-05-18T08:44:19;1.93;;;1.20;;
26906;SDS011;14472;56.880;16.658;2023-05-18T08:46:48;1.13;;;0.70;;
26906;SDS011;14472;56.880;16.658;2023-05-18T08:49:18;3.57;;;0.80;;
26906;SDS011;14472;56.880;16.658;2023-05-18T08:51:46;1.37;;;0.97;;
26906;SDS011;14472;56.880;16.658;2023-05-18T08:54:19;2.35;;;1.42;;
26906;SDS011;14472;56.880;16.658;2023-05-18T08:56:47;4.47;;;1.98;;
26906;SDS011;14472;56.880;16.658;2023-05-18T08:59:15;3.50;;;1.00;;
26906;SDS011;14472;56.880;16.658;2023-05-18T09:01:43;3.40;;;1.25;;
26906;SDS011;14472;56.880;16.658;2023-05-18T09:04:09;4.47;;;1.52;;
26906;SDS011;14472;56.880;16.658;2023-05-18T09:06:36;3.10;;;1.30;;
26906;SDS011;14472;56.880;16.658;2023-05-18T09:09:02;4.25;;;1.20;;
26906;SDS011;14472;56.880;16.658;2023-05-18T09:11:28;2.47;;;1.08;;
26906;SDS011;14472;56.880;16.658;2023-05-18T09:13:56;6.30;;;1.10;;
26906;SDS011;14472;56.880;16.658;2023-05-18T09:16:23;3.08;;;1.15;;
26906;SDS011;14472;56.880;16.658;2023-05-18T09:18:49;3.53;;;1.10;;
26906;SDS011;14472;56.880;16.658;2023-05-18T09:21:15;3.15;;;1.25;;
26906;SDS011;14472;56.880;16.658;2023-05-18T09:23:40;4.00;;;1.35;;
26906;SDS011;14472;56.880;16.658;2023-05-18T09:26:07;4.53;;;1.50;;
26906;SDS011;14472;56.880;16.658;2023-05-18T09:28:40;3.63;;;1.15;;
26906;SDS011;14472;56.880;16.658;2023-05-18T09:31:08;3.35;;;1.20;;
26906;SDS011;14472;56.880;16.658;2023-05-18T09:33:37;2.58;;;0.90;;
26906;SDS011;14472;56.880;16.658;2023-05-18T09:36:05;2.70;;;1.00;;
26906;SDS011;14472;56.880;16.658;2023-05-18T09:38:35;4.15;;;1.13;;
26906;SDS011;14472;56.880;16.658;2023-05-18T09:41:10;2.28;;;1.00;;
26906;SDS011;14472;56.880;16.658;2023-05-18T09:43:41;3.15;;;1.10;;
26906;SDS011;14472;56.880;16.658;2023-05-18T09:46:12;2.15;;;1.00;;
26906;SDS011;14472;56.880;16.658;2023-05-18T09:48:42;2.40;;;1.02;;
26906;SDS011;14472;56.880;16.658;2023-05-18T09:51:10;2.35;;;0.88;;
26906;SDS011;14472;56.880;16.658;2023-05-18T09:53:40;4.65;;;1.15;;
26906;SDS011;14472;56.880;16.658;2023-05-18T09:56:07;4.20;;;1.48;;
26906;SDS011;14472;56.880;16.658;2023-05-18T09:58:39;3.55;;;1.20;;
26906;SDS011;14472;56.880;16.658;2023-05-18T10:01:05;2.13;;;1.00;;
26906;SDS011;14472;56.880;16.658;2023-05-18T10:03:35;2.90;;;1.10;;
26906;SDS011;14472;56.880;16.658;2023-05-18T10:06:05;1.88;;;1.15;;
26906;SDS011;14472;56.880;16.658;2023-05-18T10:08:34;2.85;;;1.10;;
26906;SDS011;14472;56.880;16.658;2023-05-18T10:11:00;4.20;;;1.48;;
26906;SDS011;14472;56.880;16.658;2023-05-18T10:13:27;5.45;;;1.30;;
26906;SDS011;14472;56.880;16.658;2023-05-18T10:15:56;6.03;;;1.38;;
26906;SDS011;14472;56.880;16.658;2023-05-18T10:18:27;4.00;;;1.30;;
26906;SDS011;14472;56.880;16.658;2023-05-18T10:20:58;4.35;;;1.40;;
26906;SDS011;14472;56.880;16.658;2023-05-18T10:23:26;4.55;;;1.10;;
26906;SDS011;14472;56.880;16.658;2023-05-18T10:25:54;4.40;;;1.45;;
26906;SDS011;14472;56.880;16.658;2023-05-18T10:28:27;3.65;;;1.17;;
26906;SDS011;14472;56.880;16.658;2023-05-18T10:30:58;4.57;;;1.23;;
26906;SDS011;14472;56.880;16.658;2023-05-18T10:33:25;3.58;;;1.20;;
26906;SDS011;14472;56.880;16.658;2023-05-18T10:35:52;2.08;;;0.88;;
26906;SDS011;14472;56.880;16.658;2023-05-18T10:38:19;4.05;;;1.38;;
26906;SDS011;14472;56.880;16.658;2023-05-18T10:40:53;3.88;;;0.95;;
26906;SDS011;14472;56.880;16.658;2023-05-18T10:43:21;2.72;;;0.95;;
26906;SDS011;14472;56.880;16.658;2023-05-18T10:45:57;4.53;;;1.30;;
26906;SDS011;14472;56.880;16.658;2023-05-18T10:48:24;3.10;;;1.10;;
26906;SDS011;14472;56.880;16.658;2023-05-18T10:50:51;5.18;;;1.20;;
26906;SDS011;14472;56.880;16.658;2023-05-18T10:53:24;2.25;;;1.13;;
26906;SDS011;14472;56.880;16.658;2023-05-18T10:55:53;6.43;;;1.63;;
26906;SDS011;14472;56.880;16.658;2023-05-18T10:58:20;3.55;;;1.10;;
26906;SDS011;14472;56.880;16.658;2023-05-18T11:00:49;4.47;;;1.40;;
26906;SDS011;14472;56.880;16.658;2023-05-18T11:03:23;4.38;;;1.20;;
26906;SDS011;14472;56.880;16.658;2023-05-18T11:05:54;4.90;;;1.58;;
26906;SDS011;14472;56.880;16.658;2023-05-18T11:08:32;6.18;;;1.30;;
26906;SDS011;14472;56.880;16.658;2023-05-18T11:10:59;2.80;;;1.25;;
26906;SDS011;14472;56.880;16.658;2023-05-18T11:13:27;5.45;;;1.17;;
26906;SDS011;14472;56.880;16.658;2023-05-18T11:18:33;2.03;;;1.00;;
26906;SDS011;14472;56.880;16.658;2023-05-18T11:21:16;3.47;;;1.13;;
26906;SDS011;14472;56.880;16.658;2023-05-18T11:23:43;3.45;;;1.20;;
26906;SDS011;14472;56.880;16.658;2023-05-18T11:26:30;2.85;;;0.95;;
26906;SDS011;14472;56.880;16.658;2023-05-18T11:28:57;3.58;;;1.40;;
26906;SDS011;14472;56.880;16.658;2023-05-18T11:31:27;4.07;;;1.30;;
26906;SDS011;14472;56.880;16.658;2023-05-18T11:37:04;5.53;;;1.30;;
26906;SDS011;14472;56.880;16.658;2023-05-18T11:39:31;2.88;;;1.30;;
26906;SDS011;14472;56.880;16.658;2023-05-18T11:41:58;2.58;;;1.30;;
26906;SDS011;14472;56.880;16.658;2023-05-18T11:44:31;4.30;;;1.50;;
26906;SDS011;14472;56.880;16.658;2023-05-18T11:52:16;4.38;;;1.45;;
26906;SDS011;14472;56.880;16.658;2023-05-18T11:54:45;4.15;;;1.27;;
26906;SDS011;14472;56.880;16.658;2023-05-18T11:57:15;4.15;;;1.23;;
26906;SDS011;14472;56.880;16.658;2023-05-18T11:59:46;3.22;;;1.13;;
26906;SDS011;14472;56.880;16.658;2023-05-18T12:02:17;2.70;;;1.20;;
26906;SDS011;14472;56.880;16.658;2023-05-18T12:04:50;3.38;;;1.30;;
26906;SDS011;14472;56.880;16.658;2023-05-18T12:07:18;4.38;;;1.30;;
26906;SDS011;14472;56.880;16.658;2023-05-18T12:09:45;2.78;;;1.30;;
26906;SDS011;14472;56.880;16.658;2023-05-18T12:12:12;2.80;;;1.17;;
26906;SDS011;14472;56.880;16.658;2023-05-18T12:14:41;3.10;;;1.00;;
26906;SDS011;14472;56.880;16.658;2023-05-18T12:17:09;4.20;;;1.15;;
26906;SDS011;14472;56.880;16.658;2023-05-18T12:19:41;3.50;;;1.20;;
26906;SDS011;14472;56.880;16.658;2023-05-18T12:22:09;5.05;;;1.20;;
26906;SDS011;14472;56.880;16.658;2023-05-18T12:24:36;3.65;;;1.25;;
26906;SDS011;14472;56.880;16.658;2023-05-18T12:27:04;3.92;;;1.60;;
26906;SDS011;14472;56.880;16.658;2023-05-18T12:29:32;4.50;;;1.50;;
26906;SDS011;14472;56.880;16.658;2023-05-18T12:31:58;3.15;;;1.27;;
26906;SDS011;14472;56.880;16.658;2023-05-18T12:34:30;3.88;;;1.50;;
26906;SDS011;14472;56.880;16.658;2023-05-18T12:36:56;2.40;;;1.23;;
26906;SDS011;14472;56.880;16.658;2023-05-18T12:39:23;4.60;;;1.25;;
26906;SDS011;14472;56.880;16.658;2023-05-18T12:41:49;4.07;;;1.17;;
26906;SDS011;14472;56.880;16.658;2023-05-18T12:44:15;5.00;;;1.27;;
26906;SDS011;14472;56.880;16.658;2023-05-18T12:46:41;4.82;;;1.27;;
26906;SDS011;14472;56.880;16.658;2023-05-18T12:49:07;5.72;;;1.70;;
26906;SDS011;14472;56.880;16.658;2023-05-18T12:51:34;4.78;;;1.40;;
26906;SDS011;14472;56.880;16.658;2023-05-18T12:54:02;4.45;;;1.40;;
26906;SDS011;14472;56.880;16.658;2023-05-18T12:59:25;6.53;;;1.40;;
26906;SDS011;14472;56.880;16.658;2023-05-18T13:01:54;6.57;;;1.63;;
26906;SDS011;14472;56.880;16.658;2023-05-18T13:04:22;4.18;;;1.20;;
26906;SDS011;14472;56.880;16.658;2023-05-18T13:06:56;5.38;;;1.52;;
26906;SDS011;14472;56.880;16.658;2023-05-18T13:09:22;5.95;;;1.33;;
26906;SDS011;14472;56.880;16.658;2023-05-18T13:11:51;5.60;;;1.73;;
26906;SDS011;14472;56.880;16.658;2023-05-18T13:14:20;5.97;;;1.45;;
26906;SDS011;14472;56.880;16.658;2023-05-18T13:16:49;5.03;;;1.50;;
26906;SDS011;14472;56.880;16.658;2023-05-18T13:19:17;4.93;;;1.80;;
26906;SDS011;14472;56.880;16.658;2023-05-18T13:21:43;3.95;;;1.40;;
26906;SDS011;14472;56.880;16.658;2023-05-18T13:24:10;4.22;;;1.52;;
26906;SDS011;14472;56.880;16.658;2023-05-18T13:26:36;5.88;;;1.40;;
26906;SDS011;14472;56.880;16.658;2023-05-18T13:29:02;6.40;;;1.73;;
26906;SDS011;14472;56.880;16.658;2023-05-18T13:31:27;6.35;;;1.80;;
26906;SDS011;14472;56.880;16.658;2023-05-18T13:33:53;4.95;;;1.60;;
26906;SDS011;14472;56.880;16.658;2023-05-18T13:36:19;4.15;;;1.40;;
26906;SDS011;14472;56.880;16.658;2023-05-18T13:38:45;5.03;;;1.38;;
26906;SDS011;14472;56.880;16.658;2023-05-18T13:41:11;6.25;;;1.50;;
26906;SDS011;14472;56.880;16.658;2023-05-18T13:43:41;4.43;;;1.30;;
26906;SDS011;14472;56.880;16.658;2023-05-18T13:46:06;6.22;;;1.50;;
26906;SDS011;14472;56.880;16.658;2023-05-18T13:48:32;3.20;;;1.27;;
26906;SDS011;14472;56.880;16.658;2023-05-18T13:50:58;4.40;;;1.50;;
26906;SDS011;14472;56.880;16.658;2023-05-18T13:53:24;5.20;;;1.50;;
26906;SDS011;14472;56.880;16.658;2023-05-18T13:55:50;5.65;;;1.83;;
26906;SDS011;14472;56.880;16.658;2023-05-18T13:58:16;5.03;;;1.52;;
26906;SDS011;14472;56.880;16.658;2023-05-18T14:00:43;6.13;;;1.52;;
26906;SDS011;14472;56.880;16.658;2023-05-18T14:03:10;5.15;;;1.50;;
26906;SDS011;14472;56.880;16.658;2023-05-18T14:05:36;5.38;;;1.63;;
26906;SDS011;14472;56.880;16.658;2023-05-18T14:08:02;9.30;;;1.85;;
26906;SDS011;14472;56.880;16.658;2023-05-18T14:10:28;5.43;;;1.63;;
26906;SDS011;14472;56.880;16.658;2023-05-18T14:12:53;6.35;;;1.90;;
26906;SDS011;14472;56.880;16.658;2023-05-18T14:15:19;6.30;;;1.80;;
26906;SDS011;14472;56.880;16.658;2023-05-18T14:17:45;4.35;;;1.70;;
26906;SDS011;14472;56.880;16.658;2023-05-18T14:20:11;8.05;;;1.80;;
26906;SDS011;14472;56.880;16.658;2023-05-18T14:22:37;4.50;;;1.70;;
26906;SDS011;14472;56.880;16.658;2023-05-18T14:25:03;3.88;;;1.70;;
26906;SDS011;14472;56.880;16.658;2023-05-18T14:27:29;4.28;;;1.55;;
26906;SDS011;14472;56.880;16.658;2023-05-18T14:29:55;5.43;;;1.67;;
26906;SDS011;14472;56.880;16.658;2023-05-18T14:32:22;4.30;;;1.70;;
26906;SDS011;14472;56.880;16.658;2023-05-18T14:34:48;4.30;;;1.45;;
26906;SDS011;14472;56.880;16.658;2023-05-18T14:37:21;7.47;;;1.40;;
26906;SDS011;14472;56.880;16.658;2023-05-18T14:39:47;4.72;;;1.45;;
26906;SDS011;14472;56.880;16.658;2023-05-18T14:42:15;5.85;;;1.80;;
26906;SDS011;14472;56.880;16.658;2023-05-18T14:44:41;6.40;;;1.60;;
26906;SDS011;14472;56.880;16.658;2023-05-18T14:47:06;5.45;;;1.55;;
26906;SDS011;14472;56.880;16.658;2023-05-18T14:49:33;10.27;;;1.88;;
26906;SDS011;14472;56.880;16.658;2023-05-18T14:51:59;6.60;;;2.05;;
26906;SDS011;14472;56.880;16.658;2023-05-18T14:54:24;6.55;;;2.35;;